Time;durP1;ratioP1;P1;durP2;ratioP2;P2;SDS_P1;SDS_P2;PMS_P1;PMS_P2;Temp;Humidity;BMP_temperature;BMP_pressure;BME280_temperature;BME280_humidity;BME280_pressure;Samples;Min_cycle;Max_cycle;Signal;HPM_P1;HPM_P2
2022/08/30 00:06:48;;;;;;;0.40;0.20;;;21.90;58.10;;;;;;20679446;28;20038;-82
2022/08/30 00:16:49;;;;;;;0.32;0.20;;;21.90;58.10;;;;;;20645243;28;20045;-82
2022/08/30 00:26:50;;;;;;;0.28;0.20;;;21.90;58.10;;;;;;20646006;28;20045;-83
2022/08/30 00:36:50;;;;;;;0.70;0.52;;;21.90;58.20;;;;;;20632288;28;20675;-83
2022/08/30 00:46:51;;;;;;;0.55;0.30;;;21.90;58.40;;;;;;20659186;28;20469;-82
2022/08/30 00:56:51;;;;;;;0.52;0.40;;;21.90;58.50;;;;;;20643387;28;20030;-82
2022/08/30 01:06:52;;;;;;;0.50;0.40;;;21.90;58.60;;;;;;20673277;28;20073;-82
2022/08/30 01:16:54;;;;;;;0.30;0.30;;;21.90;58.70;;;;;;20625487;28;20026;-82
2022/08/30 01:26:54;;;;;;;0.80;0.35;;;21.90;58.90;;;;;;20943325;23;20054;-78
2022/08/30 01:36:55;;;;;;;0.50;0.50;;;21.90;58.90;;;;;;20556138;28;20107;-79
2022/08/30 01:46:55;;;;;;;1.33;0.55;;;21.90;59.00;;;;;;20587327;28;20074;-80
2022/08/30 01:56:56;;;;;;;0.32;0.32;;;21.90;59.00;;;;;;20570299;28;20030;-79
2022/08/30 02:06:56;;;;;;;0.30;0.30;;;21.80;59.10;;;;;;20570568;28;20049;-79
2022/08/30 02:16:57;;;;;;;0.85;0.50;;;21.80;59.10;;;;;;20537322;28;20459;-79
2022/08/30 02:26:58;;;;;;;0.70;0.40;;;21.80;59.80;;;;;;20553738;28;20133;-79
2022/08/30 02:36:59;;;;;;;0.43;0.40;;;21.80;59.20;;;;;;20568091;28;20038;-79
2022/08/30 02:47:00;;;;;;;0.57;0.30;;;21.80;59.20;;;;;;20535844;28;20039;-79
2022/08/30 02:57:03;;;;;;;0.55;0.50;;;21.80;59.30;;;;;;20550871;28;20045;-79
2022/08/30 03:07:05;;;;;;;0.60;0.32;;;21.80;59.40;;;;;;20550038;28;20097;-79
2022/08/30 03:17:07;;;;;;;0.75;0.43;;;21.80;59.40;;;;;;20566763;28;20041;-79
2022/08/30 03:27:07;;;;;;;0.73;0.30;;;21.80;59.50;;;;;;20566833;28;20051;-78
2022/08/30 03:37:08;;;;;;;0.87;0.50;;;21.80;59.50;;;;;;20549557;28;20035;-79
2022/08/30 03:47:08;;;;;;;0.82;0.50;;;21.80;59.60;;;;;;20566043;28;20653;-81
2022/08/30 03:57:09;;;;;;;0.40;0.40;;;21.80;59.60;;;;;;20553216;28;20497;-80
2022/08/30 04:07:09;;;;;;;0.40;0.32;;;21.80;59.70;;;;;;20564382;28;20130;-80
2022/08/30 04:17:10;;;;;;;0.50;0.40;;;21.80;59.70;;;;;;20559507;28;20030;-77
2022/08/30 04:27:11;;;;;;;1.50;0.73;;;21.70;59.60;;;;;;20555265;28;20075;-78
2022/08/30 04:37:12;;;;;;;1.10;0.63;;;21.70;59.70;;;;;;20574227;28;20054;-78
2022/08/30 04:47:12;;;;;;;0.60;0.60;;;21.70;59.90;;;;;;20575139;28;20074;-77
2022/08/30 04:57:13;;;;;;;0.75;0.47;;;21.70;59.90;;;;;;20587288;28;20078;-79
2022/08/30 05:07:13;;;;;;;0.93;0.73;;;21.70;59.90;;;;;;20552898;28;20046;-77
2022/08/30 05:17:14;;;;;;;0.80;0.60;;;21.70;60.00;;;;;;20523776;28;20038;-77
2022/08/30 05:27:15;;;;;;;1.30;0.50;;;21.70;60.00;;;;;;20490064;29;20130;-77
2022/08/30 05:37:15;;;;;;;3.38;0.50;;;21.70;60.00;;;;;;20488374;29;20039;-77
2022/08/30 05:47:16;;;;;;;0.77;0.50;;;21.70;60.00;;;;;;20479050;28;20074;-80
2022/08/30 05:57:17;;;;;;;1.80;0.60;;;21.70;60.00;;;;;;20504018;28;20346;-79
2022/08/30 06:07:17;;;;;;;1.27;0.70;;;21.70;60.10;;;;;;20488346;29;20074;-80
2022/08/30 06:17:18;;;;;;;0.82;0.57;;;21.70;60.10;;;;;;20488277;28;20030;-79
2022/08/30 06:27:18;;;;;;;0.77;0.40;;;21.70;60.10;;;;;;20489849;29;20047;-79
2022/08/30 06:37:19;;;;;;;1.23;0.47;;;21.70;60.10;;;;;;20488855;29;20114;-79
2022/08/30 06:47:19;;;;;;;0.40;0.40;;;21.70;60.10;;;;;;20519103;28;20039;-79
2022/08/30 06:57:20;;;;;;;0.40;0.40;;;21.70;60.20;;;;;;20563721;28;20094;-78
2022/08/30 07:07:21;;;;;;;0.50;0.40;;;21.70;60.20;;;;;;20485735;29;20047;-79
2022/08/30 07:27:44;;;;;;;0.73;0.52;;;21.70;60.10;;;;;;20485672;28;20413;-80
2022/08/30 07:37:45;;;;;;;0.32;0.30;;;21.70;60.10;;;;;;20512181;28;20039;-80
2022/08/30 07:47:45;;;;;;;0.60;0.45;;;21.70;60.10;;;;;;20513304;29;20824;-80
2022/08/30 07:57:46;;;;;;;0.20;0.20;;;21.70;60.10;;;;;;20513757;29;20031;-79
2022/08/30 08:07:46;;;;;;;0.75;0.43;;;21.70;60.10;;;;;;20514870;29;20135;-80
2022/08/30 08:17:47;;;;;;;0.40;0.32;;;21.70;60.00;;;;;;20514693;29;20047;-79
2022/08/30 08:27:49;;;;;;;0.52;0.40;;;21.70;60.00;;;;;;20496631;29;20110;-80
2022/08/30 08:37:50;;;;;;;0.65;0.50;;;21.70;59.90;;;;;;20510897;29;20482;-79
2022/08/30 08:47:55;;;;;;;0.70;0.50;;;21.70;59.90;;;;;;20509546;28;20043;-79
2022/08/30 08:57:56;;;;;;;0.40;0.30;;;21.70;59.80;;;;;;20511117;29;20375;-79
2022/08/30 09:08:04;;;;;;;0.30;0.30;;;21.70;59.80;;;;;;20513114;28;20047;-79
2022/08/30 09:18:07;;;;;;;0.40;0.40;;;21.80;59.80;;;;;;20508971;29;20043;-78
2022/08/30 09:28:13;;;;;;;0.30;0.22;;;21.80;59.60;;;;;;20504472;28;20543;-80
2022/08/30 09:38:25;;;;;;;0.32;0.30;;;21.70;59.50;;;;;;20497735;28;20030;-78
2022/08/30 09:48:39;;;;;;;0.63;0.35;;;21.70;59.50;;;;;;20570392;28;20039;-81
2022/08/30 09:59:06;;;;;;;0.20;0.20;;;21.80;59.50;;;;;;20554440;28;20031;-79
2022/08/30 10:09:29;;;;;;;0.25;0.25;;;21.80;59.40;;;;;;20488399;29;20383;-79
2022/08/30 10:19:39;;;;;;;0.75;0.52;;;21.80;59.40;;;;;;20491794;29;20442;-80
2022/08/30 10:29:46;;;;;;;0.43;0.40;;;21.80;59.30;;;;;;20488500;29;20162;-81
2022/08/30 10:39:50;;;;;;;0.80;0.40;;;21.80;59.20;;;;;;20487132;29;20478;-77
2022/08/30 10:49:55;;;;;;;0.50;0.30;;;21.80;59.20;;;;;;20484150;29;20038;-76
2022/08/30 11:00:05;;;;;;;0.28;0.20;;;21.80;59.10;;;;;;20483758;29;20043;-78
2022/08/30 11:10:25;;;;;;;1.35;0.50;;;21.80;59.10;;;;;;20475650;28;20101;-80
2022/08/30 11:20:41;;;;;;;0.68;0.30;;;21.80;59.00;;;;;;20572097;28;20077;-80
2022/08/30 11:30:41;;;;;;;0.28;0.28;;;21.80;59.00;;;;;;20525070;28;20042;-79
2022/08/30 11:40:47;;;;;;;0.80;0.20;;;21.80;59.00;;;;;;20595979;28;20150;-81
2022/08/30 11:51:30;;;;;;;0.40;0.40;;;21.80;59.00;;;;;;20559472;28;20178;-76
2022/08/30 12:01:34;;;;;;;0.30;0.30;;;21.80;59.00;;;;;;20567457;28;20070;-78
2022/08/30 12:11:35;;;;;;;0.20;0.20;;;21.80;59.00;;;;;;20483146;29;20046;-82
2022/08/30 12:21:36;;;;;;;0.20;0.20;;;21.80;59.00;;;;;;20513891;28;20051;-75
2022/08/30 12:32:07;;;;;;;0.28;0.28;;;21.80;59.00;;;;;;20493219;29;20361;-77
2022/08/30 12:42:25;;;;;;;0.32;0.30;;;21.80;58.90;;;;;;20520938;28;20066;-78
2022/08/30 12:52:27;;;;;;;0.55;0.30;;;21.80;58.80;;;;;;20546217;28;20556;-76
2022/08/30 13:02:43;;;;;;;0.38;0.38;;;21.90;58.90;;;;;;20580770;28;20030;-78
2022/08/30 13:13:01;;;;;;;0.17;0.17;;;21.90;58.80;;;;;;20558964;28;20409;-77
2022/08/30 13:23:09;;;;;;;0.35;0.35;;;21.90;58.80;;;;;;20525130;28;20126;-76
2022/08/30 13:33:10;;;;;;;0.20;0.20;;;21.90;58.70;;;;;;20532227;28;20045;-76
2022/08/30 13:43:11;;;;;;;0.38;0.32;;;21.90;58.70;;;;;;20542184;28;20538;-76
2022/08/30 13:53:11;;;;;;;0.20;0.20;;;21.90;58.70;;;;;;20534437;28;20121;-78
2022/08/30 14:03:12;;;;;;;0.35;0.20;;;21.90;58.70;;;;;;20563513;28;20123;-77
2022/08/30 14:13:13;;;;;;;0.20;0.20;;;22.00;58.70;;;;;;20552454;28;20038;-76
2022/08/30 14:23:13;;;;;;;0.50;0.20;;;22.00;58.60;;;;;;20539370;28;20039;-77
2022/08/30 14:33:14;;;;;;;0.52;0.30;;;22.00;58.40;;;;;;20498042;28;20123;-77
2022/08/30 14:43:15;;;;;;;0.50;0.30;;;22.10;58.30;;;;;;20484885;28;20529;-77
2022/08/30 14:53:15;;;;;;;0.25;0.25;;;22.20;58.20;;;;;;20484121;29;20203;-77
2022/08/30 15:03:16;;;;;;;0.77;0.30;;;22.20;58.20;;;;;;20490500;28;20050;-77
2022/08/30 15:13:16;;;;;;;1.33;0.40;;;22.10;58.30;;;;;;20499547;28;20362;-77
2022/08/30 15:23:18;;;;;;;2.55;0.50;;;22.10;58.40;;;;;;20555937;28;20449;-78
2022/08/30 15:33:18;;;;;;;0.68;0.40;;;22.10;58.50;;;;;;20490986;28;20043;-76
2022/08/30 15:43:19;;;;;;;9.53;2.90;;;22.10;58.60;;;;;;20527640;28;20430;-77
2022/08/30 15:53:20;;;;;;;5.68;0.70;;;22.10;58.60;;;;;;20516492;28;20041;-77
2022/08/30 16:03:20;;;;;;;1.47;0.70;;;22.20;58.70;;;;;;20481826;29;20058;-75
2022/08/30 16:13:21;;;;;;;2.03;0.57;;;22.10;58.30;;;;;;20496359;29;20330;-76
2022/08/30 16:23:21;;;;;;;1.15;0.60;;;22.30;58.10;;;;;;20493066;29;20105;-77
2022/08/30 16:33:22;;;;;;;1.17;0.40;;;22.40;58.00;;;;;;20520672;28;20041;-76
2022/08/30 16:43:22;;;;;;;1.70;0.50;;;22.50;57.90;;;;;;20571103;28;20138;-77
2022/08/30 16:53:23;;;;;;;0.82;0.32;;;22.50;57.80;;;;;;20491089;28;20287;-77
2022/08/30 17:03:24;;;;;;;0.55;0.32;;;22.50;57.80;;;;;;20517581;28;20497;-76
2022/08/30 17:13:25;;;;;;;1.55;0.30;;;22.50;57.70;;;;;;20563211;28;20616;-74
2022/08/30 17:23:25;;;;;;;0.50;0.30;;;22.40;57.80;;;;;;20516457;28;20054;-74
2022/08/30 17:33:26;;;;;;;2.83;0.40;;;22.40;57.80;;;;;;20491954;28;20509;-78
2022/08/30 17:43:26;;;;;;;1.20;0.50;;;22.40;57.90;;;;;;20483290;28;20039;-76
2022/08/30 17:53:27;;;;;;;0.83;0.40;;;22.30;57.90;;;;;;20485691;29;20287;-76
2022/08/30 18:03:28;;;;;;;1.03;0.40;;;22.30;58.00;;;;;;20486021;29;20303;-76
2022/08/30 18:13:28;;;;;;;1.38;0.65;;;22.20;58.10;;;;;;20485170;28;20872;-76
2022/08/30 18:23:29;;;;;;;0.17;0.10;;;22.20;58.20;;;;;;20501251;28;20544;-75
2022/08/30 18:33:31;;;;;;;1.05;0.57;;;22.20;58.30;;;;;;20466626;29;20107;-77
2022/08/30 18:43:31;;;;;;;0.88;0.40;;;22.20;58.30;;;;;;20483241;29;20039;-80
2022/08/30 18:53:34;;;;;;;0.47;0.30;;;22.20;58.40;;;;;;20467507;29;20043;-77
2022/08/30 19:03:34;;;;;;;0.65;0.47;;;22.10;58.40;;;;;;20484970;29;20382;-76
2022/08/30 19:13:35;;;;;;;0.33;0.30;;;22.10;58.50;;;;;;20501390;28;20046;-77
2022/08/30 19:23:36;;;;;;;0.90;0.50;;;22.10;58.50;;;;;;20545168;28;20453;-75
2022/08/30 19:33:37;;;;;;;0.22;0.20;;;22.10;58.50;;;;;;20535802;28;20043;-78
2022/08/30 19:43:37;;;;;;;0.65;0.55;;;22.10;58.60;;;;;;20534945;28;20035;-77
2022/08/30 19:53:38;;;;;;;0.20;0.20;;;22.00;58.50;;;;;;20534472;28;20049;-77
2022/08/30 20:03:38;;;;;;;0.47;0.30;;;22.00;58.60;;;;;;20535847;28;20053;-77
2022/08/30 20:13:39;;;;;;;0.25;0.17;;;22.00;58.60;;;;;;20532265;28;20085;-77
2022/08/30 20:23:40;;;;;;;1.05;0.20;;;22.00;58.60;;;;;;20532376;28;20125;-76
2022/08/30 20:33:41;;;;;;;0.20;0.20;;;22.00;58.60;;;;;;20529408;28;20063;-77
2022/08/30 20:43:42;;;;;;;0.20;0.20;;;22.00;58.60;;;;;;20546255;28;20592;-77
2022/08/30 20:53:42;;;;;;;0.77;0.40;;;22.00;58.70;;;;;;20529844;28;20039;-78
2022/08/30 21:03:43;;;;;;;0.52;0.30;;;22.00;58.70;;;;;;20546053;28;20042;-77
2022/08/30 21:13:44;;;;;;;0.65;0.28;;;22.00;58.70;;;;;;20527689;28;20182;-78
2022/08/30 21:23:44;;;;;;;0.45;0.30;;;22.00;58.70;;;;;;20504882;29;20046;-77
2022/08/30 21:33:46;;;;;;;0.40;0.38;;;21.90;58.70;;;;;;20475313;28;20505;-77
2022/08/30 21:43:47;;;;;;;0.82;0.40;;;21.90;58.70;;;;;;20502057;29;20043;-78
2022/08/30 21:53:48;;;;;;;0.55;0.30;;;21.90;58.70;;;;;;20488069;28;20047;-77
2022/08/30 22:03:52;;;;;;;0.20;0.20;;;21.90;58.70;;;;;;20486785;29;20046;-77
2022/08/30 22:13:53;;;;;;;0.27;0.20;;;21.90;58.70;;;;;;20487469;29;20043;-77
2022/08/30 22:23:54;;;;;;;0.55;0.35;;;21.90;58.60;;;;;;20501164;28;20527;-77
2022/08/30 22:33:54;;;;;;;0.30;0.30;;;21.90;58.60;;;;;;20484604;29;20055;-76
2022/08/30 22:43:55;;;;;;;0.30;0.28;;;21.90;58.60;;;;;;20501155;29;20031;-77
2022/08/30 22:53:56;;;;;;;0.20;0.20;;;21.90;58.60;;;;;;20483810;29;20441;-76
2022/08/30 23:03:57;;;;;;;0.50;0.30;;;21.90;58.90;;;;;;20498653;28;20082;-78
2022/08/30 23:13:57;;;;;;;0.70;0.50;;;21.90;58.50;;;;;;20483271;29;20069;-77
